Flight Track Log - Related Links

Times and Time Zones

All times are in EDT time to prevent confusion due to time zone crossing. See the N762VM flight status page for this flight to view local times or setup timezone preferences in your user account.

Time Position Orientation Groundspeed Altitude Reporting Facility
EDT Latitude Longitude Course Direction KTS MPH feet Rate Location/Type
Wed 03:29:29 PM 36.1667 -86.3667 202° Southwest 195 224 4,100  Level Nashville TRACON
Wed 03:30:11 PM 36.1333 -86.3833 202° Southwest 216 249 4,900 471 Climbing Nashville TRACON
Wed 03:31:11 PM 36.0833 -86.4333 219° Southwest 260 299 4,900  Level Nashville TRACON
Wed 03:32:11 PM 36.0000 -86.4333 180° South 275 316 4,900 1,050 Level Nashville TRACON
Wed 03:33:11 PM 35.9500 -86.4000 152° Southeast 230 265 7,000 2,000 Climbing Nashville TRACON
Wed 03:34:08 PM 35.9028 -86.3772 159° South 227 261 8,800 1,795 Climbing Memphis Center
Wed 03:35:08 PM 35.8511 -86.3900 191° South 227 261 10,500 1,800 Climbing Memphis Center
Wed 03:36:08 PM 35.7972 -86.4003 189° South 206 237 12,400 1,700 Climbing Memphis Center
Wed 03:37:08 PM 35.7456 -86.4106 189° South 197 227 13,900 800 Climbing Memphis Center
Wed 03:38:08 PM 35.6833 -86.4286 193° South 219 252 14,000 50 Climbing Memphis Center
Wed 03:39:09 PM 35.6131 -86.4447 191° South 252 290 14,000 550 Level Memphis Center
Wed 03:40:08 PM 35.5447 -86.4608 191° South 258 297 15,100 1,008 Climbing Memphis Center
Wed 03:41:08 PM 35.4742 -86.4742 189° South 240 276 16,000 450 Climbing Memphis Center
Wed 03:42:08 PM 35.4081 -86.4953 195° South 240 276 16,000  Level Memphis Center
Wed 03:43:08 PM 35.3356 -86.5089 189° South 258 297 16,000  Level Memphis Center
Wed 03:44:08 PM 35.2631 -86.5272 192° South 268 308 16,000  Level Memphis Center
Wed 03:45:09 PM 35.1867 -86.5486 193° South 274 315 16,000  Level Memphis Center
Wed 03:46:08 PM 35.1122 -86.5672 192° South 279 321 16,000  Level Memphis Center
Wed 03:47:08 PM 35.0353 -86.5808 188° South 279 321 16,000  Level Memphis Center
Wed 03:48:09 PM 34.9586 -86.5994 191° South 279 321 16,000  Level Memphis Center
Wed 03:49:08 PM 34.8781 -86.6183 191° South 284 327 16,000  Level Memphis Center
Wed 03:50:08 PM 34.7992 -86.6319 188° South 290 334 16,000  Level Memphis Center
Wed 03:51:09 PM 34.7181 -86.6481 189° South 295 339 16,000 -150 Level Memphis Center
Wed 03:52:08 PM 34.6369 -86.6492 181° South 295 339 15,700 -555 Descending Memphis Center
Wed 03:53:08 PM 34.5536 -86.6553 183° South 295 339 14,900 -918 Descending Memphis Center
Wed 03:53:33 PM 34.5114 -86.6606 186° South 291 335 14,400 -1,256 Descending Atlanta Center
Wed 03:54:34 PM 34.4383 -86.6683 185° South 276 318 13,100 -1,190 Descending Atlanta Center
Wed 03:55:34 PM 34.3608 -86.6758 185° South 281 323 12,000 -1,100 Descending Atlanta Center
Wed 03:56:34 PM 34.2856 -86.6811 183° South 281 323 10,900 -577 Descending Atlanta Center
Wed 03:57:18 PM 34.2333 -86.6919 190° South 264 304 11,000  Climbing Atlanta Center
Wed 03:57:33 PM 34.2125 -86.6889 173° South 274 315 10,900  Descending Atlanta Center
Wed 03:58:12 PM 34.1642 -86.6950 186° South 265 305 11,000  Climbing Atlanta Center
Wed 03:58:34 PM 34.1517 -86.6944 178° South 274 315 10,900  Descending Atlanta Center
Wed 03:59:13 PM 34.0847 -86.7050 187° South 285 328 11,000 100 Climbing Atlanta Center
Wed 03:59:34 PM 34.0639 -86.7019 173° South 280 322 11,000  Level Atlanta Center
Wed 04:00:13 PM 34.0053 -86.7125 188° South 291 335 11,000  Level Atlanta Center
Wed 04:00:33 PM 33.9844 -86.7094 173° South 285 328 11,000 -197 Level Atlanta Center
Wed 04:01:14 PM 33.9219 -86.7100 180° South 285 328 10,800 -300 Descending Atlanta Center
Wed 04:01:33 PM 33.9053 -86.7044 165° South 290 334 10,700 -1,180 Descending Atlanta Center
Wed 04:02:15 PM 33.8431 -86.6825 164° South 295 339 9,600 -1,180 Descending Atlanta Center
Wed 04:02:34 PM 33.8286 -86.6744 155° Southeast 290 334 9,500 -1,545 Descending Atlanta Center
Wed 04:03:21 PM 33.7692 -86.6303 148° Southeast 284 327 7,900 -2,278 Descending Atlanta Center
Wed 04:04:22 PM 33.7161 -86.5661 135° Southeast 271 312 5,400 -1,930 Descending Atlanta Center
Wed 04:05:16 PM 33.6667 -86.5347 152° Southeast 237 273 4,200 -1,083 Descending Atlanta Center
Wed 04:05:34 PM 33.6625 -86.5372 207° Southwest 267 307 4,100 -846 Descending Atlanta Center
Wed 04:06:34 PM 33.6444 -86.6039 252° West 136 157 3,100 -1,091 Descending Atlanta Center
Wed 04:07:24 PM 33.6203 -86.6556 241° Southwest 142 163 2,100 -796 Descending Atlanta Center
Wed 04:08:12 PM 33.6072 -86.6828 240° Southwest 121 139 1,800 -496 Descending Atlanta Center
Wed 04:09:25 PM 33.5792 -86.7267 233° Southwest 135 155 1,100 -575 Descending Atlanta Center
Wed 04:11:00 PM 33.5639 -86.7523 196° South  Level Estimated
Wed 04:18:00 PM 33.5639 -86.7523 196° South  Level Estimated

Login

Don't have an account? Register now (free) for customized features, flight alerts, and more!